Time;durP1;ratioP1;P1;durP2;ratioP2;P2;SDS_P1;SDS_P2;PMS_P1;PMS_P2;Temp;Humidity;BMP_temperature;BMP_pressure;BME280_temperature;BME280_humidity;BME280_pressure;Samples;Min_cycle;Max_cycle;Signal;HPM_P1;HPM_P2
2022/02/14 00:00:22;;;;;;;64.42;35.68;;;;;;;3.07;72.92;101786.69;1748019;81;21053;-69
2022/02/14 00:02:50;;;;;;;52.85;29.77;;;;;;;2.93;74.53;101779.81;1748707;81;32480;-67
2022/02/14 00:05:16;;;;;;;50.05;28.20;;;;;;;2.84;73.43;101773.96;1745083;81;21129;-67
2022/02/14 00:07:44;;;;;;;43.75;24.70;;;;;;;2.66;73.97;101773.81;1710468;82;21782;-73
2022/02/14 00:10:12;;;;;;;38.60;21.85;;;;;;;2.58;73.75;101773.00;1745031;81;21045;-68
2022/02/14 00:12:42;;;;;;;30.60;18.95;;;;;;;2.40;74.22;101768.96;1742079;81;20900;-71
2022/02/14 00:15:11;;;;;;;30.10;16.45;;;;;;;2.38;73.89;101770.32;1720757;82;22150;-68
2022/02/14 00:17:39;;;;;;;25.97;16.55;;;;;;;2.50;72.36;101757.20;1719943;83;20987;-72
2022/02/14 00:20:07;;;;;;;27.05;15.20;;;;;;;2.29;75.33;101752.88;1744312;81;21058;-67
2022/02/14 00:22:35;;;;;;;27.95;16.90;;;;;;;2.49;76.11;101749.09;1713717;82;20993;-67
2022/02/14 00:25:03;;;;;;;26.12;14.80;;;;;;;2.27;78.98;101750.84;1743797;81;20907;-69
2022/02/14 00:27:31;;;;;;;24.65;14.23;;;;;;;2.31;80.15;101746.34;1742366;81;21023;-70
2022/02/14 00:29:58;;;;;;;25.60;13.45;;;;;;;2.46;79.85;101743.30;1722619;82;21065;-68
2022/02/14 00:32:25;;;;;;;43.08;24.72;;;;;;;2.66;77.50;101738.59;1744803;82;21500;-67
2022/02/14 00:34:51;;;;;;;35.95;21.93;;;;;;;2.67;76.42;101742.81;1713395;83;21153;-71
2022/02/14 00:37:19;;;;;;;33.98;18.07;;;;;;;2.65;77.17;101735.66;1743809;82;21504;-68
2022/02/14 00:39:45;;;;;;;34.95;21.00;;;;;;;2.64;78.68;101738.31;1741963;81;21054;-68
2022/02/14 00:42:12;;;;;;;46.90;28.52;;;;;;;2.86;78.04;101728.32;1723108;82;21187;-68
2022/02/14 00:44:40;;;;;;;37.53;21.80;;;;;;;2.76;78.01;101730.28;1739826;81;20990;-67
2022/02/14 00:47:07;;;;;;;41.98;22.98;;;;;;;2.72;78.70;101736.55;1712613;82;21491;-70
2022/02/14 00:49:33;;;;;;;44.08;25.02;;;;;;;2.84;77.68;101724.18;1743715;82;22517;-69
2022/02/14 00:52:00;;;;;;;47.73;27.22;;;;;;;2.81;78.10;101719.25;1742846;81;21002;-69
2022/02/14 00:54:26;;;;;;;49.90;28.15;;;;;;;3.02;79.18;101726.06;1722751;83;21046;-68
2022/02/14 00:56:52;;;;;;;47.27;29.02;;;;;;;2.77;80.21;101729.38;1738955;82;20899;-66
2022/02/14 00:59:21;;;;;;;56.60;33.30;;;;;;;2.89;80.09;101729.42;1712986;82;22984;-69
2022/02/14 01:01:49;;;;;;;55.58;32.10;;;;;;;3.00;80.04;101735.66;1744112;81;21053;-67
2022/02/14 01:04:15;;;;;;;56.40;33.95;;;;;;;3.08;77.89;101740.67;1744867;81;21034;-67
2022/02/14 01:06:42;;;;;;;43.87;26.45;;;;;;;2.98;77.31;101738.77;1718313;82;21067;-67
2022/02/14 01:09:09;;;;;;;51.55;28.57;;;;;;;3.08;74.98;101738.56;1744063;82;20891;-71
2022/02/14 01:11:37;;;;;;;42.70;24.95;;;;;;;2.92;74.34;101740.83;1709684;83;21044;-70
2022/02/14 01:14:03;;;;;;;36.83;23.18;;;;;;;2.72;74.06;101740.41;1743211;82;20934;-66
2022/02/14 01:16:32;;;;;;;41.42;24.10;;;;;;;2.71;73.10;101741.34;1746705;81;21552;-67
2022/02/14 01:18:59;;;;;;;41.50;22.77;;;;;;;2.60;73.53;101740.70;1718199;82;20972;-66
2022/02/14 01:21:26;;;;;;;39.73;22.10;;;;;;;2.16;77.84;101738.66;1743593;82;20952;-70
2022/02/14 01:23:53;;;;;;;32.25;19.85;;;;;;;2.39;78.21;101733.40;1717395;82;21153;-67
2022/02/14 01:26:19;;;;;;;30.68;19.32;;;;;;;2.32;77.45;101730.83;1744108;82;21105;-67
2022/02/14 01:28:45;;;;;;;32.45;19.27;;;;;;;2.19;77.48;101726.04;1718390;82;21014;-68
2022/02/14 01:31:12;;;;;;;34.33;19.32;;;;;;;2.22;76.04;101725.86;1744067;82;21006;-67
2022/02/14 01:33:39;;;;;;;36.98;19.55;;;;;;;2.12;76.79;101721.75;1710884;83;21104;-69
2022/02/14 01:36:05;;;;;;;32.03;18.48;;;;;;;2.11;79.53;101722.64;1742721;82;21656;-67
2022/02/14 01:38:34;;;;;;;29.95;17.45;;;;;;;2.31;76.92;101727.04;1709392;83;20961;-67
2022/02/14 01:41:00;;;;;;;29.80;17.15;;;;;;;2.33;74.82;101726.50;1740743;81;20931;-69
2022/02/14 01:43:27;;;;;;;34.50;20.82;;;;;;;2.30;76.92;101724.11;1745898;82;20984;-71
2022/02/14 01:45:53;;;;;;;28.05;17.65;;;;;;;2.28;79.24;101728.08;1717320;82;21067;-70
2022/02/14 01:48:20;;;;;;;40.43;21.93;;;;;;;2.81;77.24;101720.53;1730236;81;22422;-67
2022/02/14 01:50:47;;;;;;;37.08;20.45;;;;;;;3.02;74.76;101729.45;1732725;81;21035;-67
2022/02/14 01:53:15;;;;;;;38.63;22.40;;;;;;;2.74;78.73;101732.96;1733121;81;21495;-67
2022/02/14 01:55:41;;;;;;;47.35;27.67;;;;;;;2.56;81.66;101727.66;1731613;81;20980;-71
2022/02/14 01:58:08;;;;;;;53.75;28.70;;;;;;;2.45;83.15;101728.31;1733196;81;21118;-67
2022/02/14 02:00:37;;;;;;;52.62;31.25;;;;;;;2.55;82.11;101730.70;1732124;81;21161;-67
2022/02/14 02:03:04;;;;;;;47.20;28.15;;;;;;;2.59;80.25;101724.44;1731898;81;21046;-69
2022/02/14 02:05:31;;;;;;;54.23;30.97;;;;;;;2.62;79.12;101716.53;1730225;81;21044;-69
2022/02/14 02:07:59;;;;;;;68.83;40.60;;;;;;;2.47;80.34;101721.81;1730853;81;21110;-68
2022/02/14 02:10:26;;;;;;;53.35;29.65;;;;;;;2.79;78.13;101715.46;1732393;81;21018;-67
2022/02/14 02:12:56;;;;;;;45.33;26.65;;;;;;;2.84;77.82;101718.59;1729548;81;21161;-66
2022/02/14 02:15:24;;;;;;;43.45;24.82;;;;;;;2.52;76.80;101715.44;1718601;82;20999;-70
2022/02/14 02:17:51;;;;;;;43.10;24.45;;;;;;;2.38;77.60;101716.74;1743217;82;21041;-67
2022/02/14 02:20:18;;;;;;;36.25;22.48;;;;;;;2.52;75.23;101714.62;1718732;82;21583;-67
2022/02/14 02:22:48;;;;;;;37.38;19.70;;;;;;;2.50;74.69;101717.30;1744529;82;21046;-68
2022/02/14 02:25:15;;;;;;;35.60;20.60;;;;;;;2.63;73.33;101709.17;1712764;83;21136;-67
2022/02/14 02:27:42;;;;;;;37.10;22.27;;;;;;;2.50;74.41;101709.58;1740035;82;21566;-71
2022/02/14 02:30:12;;;;;;;33.13;19.42;;;;;;;2.25;77.47;101714.11;1746198;82;22361;-67
2022/02/14 02:32:40;;;;;;;28.73;16.67;;;;;;;2.23;77.12;101710.78;1718191;83;21481;-66
2022/02/14 02:35:08;;;;;;;34.65;19.65;;;;;;;2.50;75.33;101704.43;1744271;82;21614;-66
2022/02/14 02:37:35;;;;;;;37.80;20.00;;;;;;;2.33;74.63;101708.03;1717009;83;21549;-73
2022/02/14 02:40:02;;;;;;;38.05;20.57;;;;;;;2.88;70.32;101697.34;1744132;82;20972;-68
2022/02/14 02:42:29;;;;;;;40.43;21.87;;;;;;;2.06;74.76;101713.10;1713140;83;21526;-67
2022/02/14 02:44:55;;;;;;;37.88;20.97;;;;;;;2.06;76.76;101715.67;1744464;82;21472;-69
2022/02/14 02:47:24;;;;;;;39.60;21.30;;;;;;;2.06;75.98;101704.56;1744477;81;21077;-72
2022/02/14 02:49:50;;;;;;;50.48;31.12;;;;;;;1.86;78.43;101706.59;1743817;82;21125;-67
2022/02/14 02:52:18;;;;;;;52.25;27.42;;;;;;;1.76;79.57;101704.17;1712651;83;21039;-66
2022/02/14 02:54:45;;;;;;;42.67;25.57;;;;;;;2.00;78.36;101704.92;1744043;82;21036;-67
2022/02/14 02:57:12;;;;;;;42.17;23.95;;;;;;;1.85;78.97;101704.09;1746939;81;21054;-73
2022/02/14 02:59:38;;;;;;;37.58;21.68;;;;;;;1.74;80.58;101702.14;1743365;82;21119;-69
2022/02/14 03:02:09;;;;;;;38.50;21.37;;;;;;;1.84;80.91;101705.84;1712613;83;21330;-69
2022/02/14 03:04:37;;;;;;;39.63;22.58;;;;;;;1.87;80.71;101703.09;1748109;81;20946;-68
2022/02/14 03:07:03;;;;;;;45.67;23.85;;;;;;;1.73;81.90;101707.39;1749310;81;21508;-70
2022/02/14 03:09:30;;;;;;;47.60;24.52;;;;;;;1.80;82.02;101704.83;1729470;81;20959;-70
2022/02/14 03:11:57;;;;;;;40.83;24.27;;;;;;;2.13;79.69;101704.10;1705959;81;21093;-69
2022/02/14 03:14:24;;;;;;;41.88;24.60;;;;;;;2.09;79.97;101691.06;1752150;81;22025;-69
2022/02/14 03:16:51;;;;;;;49.42;25.20;;;;;;;2.05;80.66;101699.06;1720961;82;20970;-68
2022/02/14 03:19:18;;;;;;;50.40;26.90;;;;;;;2.00;80.01;101701.88;1751094;81;21037;-69
2022/02/14 03:21:44;;;;;;;43.87;25.37;;;;;;;2.10;80.06;101705.56;1749548;81;21089;-68
2022/02/14 03:24:13;;;;;;;45.75;24.07;;;;;;;2.18;79.48;101703.35;1729089;81;21034;-69
2022/02/14 03:26:39;;;;;;;45.90;26.12;;;;;;;1.97;81.11;101705.95;1752358;81;21171;-67
2022/02/14 03:29:06;;;;;;;45.05;26.23;;;;;;;2.18;80.34;101693.53;1720903;83;21223;-71
2022/02/14 03:31:33;;;;;;;44.15;25.23;;;;;;;2.00;80.67;101699.31;1751037;81;21495;-67
2022/02/14 03:33:59;;;;;;;44.20;24.35;;;;;;;1.94;82.49;101700.98;1750551;81;21492;-67
2022/02/14 03:36:26;;;;;;;46.42;23.10;;;;;;;2.08;81.93;101705.28;1729113;82;21027;-67
2022/02/14 03:38:52;;;;;;;47.70;26.42;;;;;;;2.11;81.83;101699.49;1729209;82;21159;-66
2022/02/14 03:41:19;;;;;;;41.45;24.60;;;;;;;2.13;84.48;101697.67;1750729;81;21481;-71
2022/02/14 03:43:46;;;;;;;45.28;25.77;;;;;;;2.21;85.41;101706.67;1720058;83;21655;-67
2022/02/14 03:46:14;;;;;;;43.20;25.27;;;;;;;2.29;85.02;101705.74;1752528;80;21570;-68
2022/02/14 03:48:40;;;;;;;53.50;28.65;;;;;;;2.48;82.96;101703.69;1750397;81;20908;-67
2022/02/14 03:51:07;;;;;;;60.30;32.80;;;;;;;2.42;82.85;101697.62;1752039;81;21238;-69
2022/02/14 03:53:34;;;;;;;58.30;34.58;;;;;;;2.67;80.91;101690.50;1720186;82;20986;-68
2022/02/14 03:56:00;;;;;;;72.12;41.73;;;;;;;2.48;79.86;101702.40;1752441;80;21080;-67
2022/02/14 03:58:28;;;;;;;75.52;42.15;;;;;;;2.35;79.99;101701.05;1750421;81;20951;-66
2022/02/14 04:00:54;;;;;;;78.65;41.42;;;;;;;2.43;77.12;101700.58;1707164;82;21006;-66
2022/02/14 04:03:21;;;;;;;75.78;41.58;;;;;;;2.43;76.52;101701.87;1651098;85;21649;-69
2022/02/14 04:05:49;;;;;;;72.12;40.85;;;;;;;2.36;76.29;101705.73;1652347;85;21093;-66
2022/02/14 04:08:15;;;;;;;73.17;40.17;;;;;;;2.28;76.61;101702.81;1653268;86;21101;-67
2022/02/14 04:10:43;;;;;;;70.20;41.02;;;;;;;2.27;75.83;101709.67;1649764;86;20991;-67
2022/02/14 04:13:10;;;;;;;58.33;34.60;;;;;;;2.42;75.23;101712.63;1652594;86;21027;-68
2022/02/14 04:15:38;;;;;;;57.40;33.00;;;;;;;2.46;74.61;101707.27;1653097;85;21246;-72
2022/02/14 04:18:07;;;;;;;55.73;29.63;;;;;;;2.52;73.69;101725.73;1653096;86;22217;-66
2022/02/14 04:20:34;;;;;;;60.03;33.38;;;;;;;2.37;74.89;101701.77;1634923;86;21512;-67
2022/02/14 04:23:01;;;;;;;49.55;30.35;;;;;;;2.58;74.11;101704.78;1655993;85;20982;-69
2022/02/14 04:25:31;;;;;;;50.75;27.13;;;;;;;2.62;73.60;101701.09;1657198;84;21170;-67
2022/02/14 04:27:57;;;;;;;52.03;29.30;;;;;;;2.71;72.29;101701.43;1652612;85;21161;-67
2022/02/14 04:30:25;;;;;;;54.08;30.45;;;;;;;2.48;72.50;101709.30;1649626;85;21110;-67
2022/02/14 04:32:53;;;;;;;53.30;30.85;;;;;;;2.45;71.52;101710.30;1653214;85;21563;-67
2022/02/14 04:35:19;;;;;;;73.10;41.73;;;;;;;2.43;69.34;101714.27;1652616;85;20942;-67
2022/02/14 04:37:46;;;;;;;84.52;50.83;;;;;;;2.29;68.57;101714.75;1652512;85;20979;-72
2022/02/14 04:40:13;;;;;;;99.70;55.25;;;;;;;2.30;68.25;101715.11;1653693;85;22473;-67
2022/02/14 04:42:41;;;;;;;99.83;50.50;;;;;;;2.23;67.56;101710.78;1652138;85;21013;-67
2022/02/14 04:45:09;;;;;;;94.72;47.38;;;;;;;2.22;67.15;101716.03;1652718;86;21034;-71
2022/02/14 04:47:36;;;;;;;86.97;44.65;;;;;;;2.15;66.72;101722.00;1653111;86;21053;-73
2022/02/14 04:50:04;;;;;;;76.72;39.38;;;;;;;2.15;67.04;101718.14;1652383;86;21560;-67
2022/02/14 04:52:30;;;;;;;78.42;38.53;;;;;;;2.13;67.38;101717.42;1653160;86;21176;-66
2022/02/14 04:54:56;;;;;;;74.97;38.53;;;;;;;2.32;67.75;101721.82;1652933;86;21515;-67
2022/02/14 04:57:23;;;;;;;85.05;44.23;;;;;;;2.25;68.54;101730.01;1652396;86;20993;-66
2022/02/14 04:59:49;;;;;;;72.90;40.73;;;;;;;2.26;69.70;101730.36;1652835;86;21147;-72
2022/02/14 05:02:16;;;;;;;68.80;36.48;;;;;;;2.28;70.42;101720.36;1649091;86;21129;-68
2022/02/14 05:04:42;;;;;;;62.23;34.73;;;;;;;2.43;69.98;101724.56;1653192;86;21165;-69
2022/02/14 05:07:08;;;;;;;55.85;31.82;;;;;;;2.57;70.02;101721.13;1652739;86;21118;-67
2022/02/14 05:09:35;;;;;;;64.30;32.10;;;;;;;2.50;71.02;101719.02;1650347;86;20964;-67
2022/02/14 05:12:04;;;;;;;58.45;31.60;;;;;;;2.62;73.38;101720.39;1651637;85;21094;-67
2022/02/14 05:14:32;;;;;;;74.80;39.98;;;;;;;2.71;75.04;101725.42;1653039;86;21160;-66
2022/02/14 05:16:59;;;;;;;66.57;35.98;;;;;;;2.93;77.71;101726.19;1652235;86;21149;-65
2022/02/14 05:19:25;;;;;;;73.28;37.88;;;;;;;3.02;80.24;101723.02;1652920;86;21474;-69
2022/02/14 05:21:52;;;;;;;62.30;34.03;;;;;;;3.24;81.99;101717.31;1649791;85;21111;-66
2022/02/14 05:24:19;;;;;;;67.42;36.60;;;;;;;3.58;81.80;101723.66;1652378;85;21493;-66
2022/02/14 05:26:46;;;;;;;68.80;37.98;;;;;;;3.77;82.55;101727.60;1650117;85;21117;-65
2022/02/14 05:29:13;;;;;;;100.33;54.83;;;;;;;4.00;84.39;101725.58;1652942;85;21234;-65
2022/02/14 05:31:39;;;;;;;72.70;40.40;;;;;;;4.18;85.63;101712.37;1652001;85;21081;-66
2022/02/14 05:34:08;;;;;;;64.22;35.30;;;;;;;4.30;87.55;101718.78;1650152;85;21038;-66
2022/02/14 05:36:35;;;;;;;68.57;38.48;;;;;;;4.39;90.59;101722.03;1652649;85;20967;-66
2022/02/14 05:39:03;;;;;;;65.55;36.70;;;;;;;4.84;91.03;101718.88;1652992;85;21153;-60
2022/02/14 05:41:30;;;;;;;63.25;38.15;;;;;;;4.97;92.31;101718.37;1652705;85;21176;-69
2022/02/14 05:43:56;;;;;;;61.10;37.15;;;;;;;5.44;92.72;101719.23;1650451;85;20963;-67
2022/02/14 05:46:22;;;;;;;54.18;33.35;;;;;;;5.66;93.97;101721.52;1651976;85;21115;-65
2022/02/14 05:48:49;;;;;;;49.00;31.10;;;;;;;6.01;93.69;101714.52;1652452;85;21186;-70
2022/02/14 05:51:16;;;;;;;47.67;27.85;;;;;;;6.56;93.89;101709.42;1652583;85;22371;-70
2022/02/14 05:53:43;;;;;;;45.15;29.40;;;;;;;7.34;95.40;101707.47;1652309;85;21164;-69
2022/02/14 05:56:09;;;;;;;46.73;29.85;;;;;;;8.74;88.99;101703.75;1651524;85;20955;-70
2022/02/14 05:58:36;;;;;;;43.70;30.75;;;;;;;9.09;81.67;101707.14;1650292;85;21110;-68
2022/02/14 06:01:03;;;;;;;50.90;32.10;;;;;;;8.67;78.38;101705.24;1650633;85;21117;-70
2022/02/14 06:03:30;;;;;;;44.77;28.57;;;;;;;8.99;72.72;101700.63;1652496;85;21138;-73
2022/02/14 06:05:57;;;;;;;44.13;29.48;;;;;;;9.46;70.61;101698.09;1652681;85;21176;-68
2022/02/14 06:08:23;;;;;;;44.35;28.90;;;;;;;10.59;63.97;101702.80;1651894;85;20996;-71
2022/02/14 06:10:50;;;;;;;47.35;33.75;;;;;;;12.13;57.01;101697.87;1651706;85;22410;-72
2022/02/14 06:13:17;;;;;;;43.98;29.82;;;;;;;13.22;52.25;101695.59;1651685;85;21721;-70
2022/02/14 06:15:44;;;;;;;43.13;28.33;;;;;;;13.90;47.70;101698.72;1652281;85;21115;-70
2022/02/14 06:18:12;;;;;;;61.00;38.87;;;;;;;14.58;46.01;101707.27;1651459;85;21393;-70
2022/02/14 06:20:38;;;;;;;56.37;37.57;;;;;;;15.11;43.24;101702.94;1651889;85;21697;-70
2022/02/14 06:23:08;;;;;;;51.50;34.83;;;;;;;15.32;42.43;101689.14;1671124;84;21281;-71
2022/02/14 06:25:35;;;;;;;47.43;32.93;;;;;;;15.81;40.40;101696.04;1645121;85;21611;-71
2022/02/14 06:28:04;;;;;;;39.20;28.00;;;;;;;16.45;39.47;101634.84;1651129;86;21740;-70
2022/02/14 06:30:31;;;;;;;39.40;29.13;;;;;;;16.82;37.81;101692.71;1654809;85;21179;-70
2022/02/14 06:32:58;;;;;;;46.23;32.00;;;;;;;17.13;36.33;101687.13;1656189;85;21562;-67
2022/02/14 06:35:24;;;;;;;40.33;29.93;;;;;;;17.50;35.55;101688.09;1653891;85;21102;-69
2022/02/14 06:37:51;;;;;;;38.40;29.53;;;;;;;17.69;35.53;101681.77;1654087;85;21579;-67
2022/02/14 06:40:21;;;;;;;40.73;30.40;;;;;;;18.25;33.55;101677.67;1645721;85;21024;-67
2022/02/14 06:42:50;;;;;;;33.83;27.33;;;;;;;18.70;32.94;101684.09;1646300;85;21357;-68
2022/02/14 06:45:18;;;;;;;39.90;29.20;;;;;;;19.22;33.09;101675.05;1645097;85;21153;-69
2022/02/14 06:47:47;;;;;;;52.83;42.30;;;;;;;18.98;32.06;101683.11;1652031;85;21206;-68
2022/02/14 06:50:15;;;;;;;55.97;46.30;;;;;;;19.15;31.61;101680.33;1652016;85;21094;-68
2022/02/14 06:52:41;;;;;;;56.10;45.83;;;;;;;19.17;31.22;101684.92;1652246;85;21137;-67
2022/02/14 06:55:08;;;;;;;56.97;46.53;;;;;;;19.09;30.63;101684.30;1650240;85;21140;-66
2022/02/14 06:57:36;;;;;;;56.67;46.10;;;;;;;18.77;30.02;101683.29;1650548;86;22489;-65
2022/02/14 07:00:08;;;;;;;54.43;44.77;;;;;;;18.29;30.11;101685.50;1652010;85;21062;-68
2022/02/14 07:02:36;;;;;;;51.87;43.10;;;;;;;17.90;30.37;101677.76;1649777;86;21610;-67
2022/02/14 07:05:04;;;;;;;54.70;42.33;;;;;;;18.10;30.41;101676.51;1691008;84;21037;-68
2022/02/14 07:07:31;;;;;;;50.33;41.37;;;;;;;18.24;31.10;101664.17;1691514;83;21151;-68
2022/02/14 07:09:58;;;;;;;54.63;43.80;;;;;;;18.50;30.19;101662.10;1688670;83;21953;-67
2022/02/14 07:12:25;;;;;;;52.37;42.63;;;;;;;19.02;30.71;101661.05;1687238;83;21042;-68
2022/02/14 07:14:51;;;;;;;53.50;43.53;;;;;;;19.36;30.88;101662.11;1692237;83;22264;-69
2022/02/14 07:17:18;;;;;;;50.10;42.67;;;;;;;19.85;29.84;101661.25;1688988;84;21597;-69
2022/02/14 07:19:44;;;;;;;48.23;40.53;;;;;;;19.77;29.27;101658.85;1685344;84;21084;-67
2022/02/14 07:22:11;;;;;;;51.03;41.10;;;;;;;20.25;28.76;101661.08;1688325;83;20997;-68
2022/02/14 07:24:37;;;;;;;52.40;43.13;;;;;;;20.46;29.00;101659.42;1692533;84;20973;-68
2022/02/14 07:27:04;;;;;;;47.67;38.67;;;;;;;20.36;29.04;101661.72;1688685;84;21103;-69
2022/02/14 07:29:32;;;;;;;44.43;37.70;;;;;;;20.60;29.06;101662.28;1688865;83;21027;-69
2022/02/14 07:32:00;;;;;;;41.83;36.73;;;;;;;20.99;28.44;101659.55;1694743;84;21179;-70
2022/02/14 07:34:28;;;;;;;43.73;37.30;;;;;;;21.09;28.11;101661.98;1693108;83;20944;-70
2022/02/14 07:36:55;;;;;;;38.27;33.97;;;;;;;21.00;27.60;101651.37;1692670;83;21561;-70
2022/02/14 07:39:22;;;;;;;41.27;33.47;;;;;;;21.12;27.77;101651.45;1677398;84;21139;-68
2022/02/14 07:41:48;;;;;;;37.50;32.53;;;;;;;21.22;27.63;101643.81;1692276;84;21076;-69
2022/02/14 07:44:15;;;;;;;41.47;36.07;;;;;;;21.36;27.17;101649.29;1688340;84;21851;-68
2022/02/14 07:46:42;;;;;;;43.83;37.33;;;;;;;21.67;26.64;101648.03;1691700;83;20992;-68
2022/02/14 07:49:08;;;;;;;54.77;43.37;;;;;;;22.07;26.21;101644.36;1684314;84;21490;-69
2022/02/14 07:51:35;;;;;;;43.07;35.50;;;;;;;21.79;26.73;101655.56;1694080;84;21112;-67
2022/02/14 07:54:02;;;;;;;44.33;34.73;;;;;;;21.44;26.62;101658.83;1695482;83;21099;-67
2022/02/14 07:56:28;;;;;;;37.47;31.07;;;;;;;21.77;26.31;101661.59;1693924;84;21161;-67
2022/02/14 07:58:58;;;;;;;36.97;31.20;;;;;;;19.62;28.40;101663.91;1687497;83;20973;-68
2022/02/14 08:01:23;;;;;;;37.93;30.50;;;;;;;19.02;29.57;101667.14;1680947;84;21141;-67
2022/02/14 08:03:50;;;;;;;33.63;28.77;;;;;;;20.97;28.22;101654.45;1707384;82;21377;-67
2022/02/14 08:06:16;;;;;;;36.90;31.33;;;;;;;21.29;27.33;101663.13;1716443;82;21029;-67
2022/02/14 08:08:43;;;;;;;33.57;29.03;;;;;;;21.48;26.83;101661.82;1717140;82;21546;-70
2022/02/14 08:11:11;;;;;;;36.53;30.90;;;;;;;21.62;27.04;101662.78;1716584;83;20897;-69
2022/02/14 08:13:38;;;;;;;35.80;30.40;;;;;;;21.56;26.58;101666.34;1713770;83;20974;-67
2022/02/14 08:16:05;;;;;;;37.03;32.70;;;;;;;21.04;27.68;101667.66;1713300;83;20996;-67
2022/02/14 08:18:33;;;;;;;35.37;31.07;;;;;;;21.69;26.41;101662.70;1716713;82;21131;-70
2022/02/14 08:21:00;;;;;;;37.50;31.70;;;;;;;21.73;26.67;101663.87;1715992;83;21625;-66
2022/02/14 08:23:26;;;;;;;35.20;31.40;;;;;;;21.48;26.51;101661.82;1716204;83;21092;-68
2022/02/14 08:25:53;;;;;;;36.13;29.93;;;;;;;21.37;26.53;101664.72;1715147;83;21007;-67
2022/02/14 08:28:19;;;;;;;42.77;34.67;;;;;;;21.19;26.41;101654.05;1716634;82;20947;-68
2022/02/14 08:30:45;;;;;;;43.77;34.90;;;;;;;21.22;26.75;101658.92;1716471;82;21087;-70
2022/02/14 08:33:12;;;;;;;32.80;25.93;;;;;;;20.83;27.16;101659.56;1714917;82;21173;-70
2022/02/14 08:35:41;;;;;;;36.07;29.80;;;;;;;21.08;26.95;101660.36;1712320;82;21634;-69
2022/02/14 08:38:07;;;;;;;34.23;23.77;;;;;;;21.28;26.63;101656.70;1712479;82;20959;-68
2022/02/14 08:40:34;;;;;;;21.30;16.43;;;;;;;21.73;26.10;101656.44;1712446;82;21033;-68
2022/02/14 08:43:02;;;;;;;17.53;14.80;;;;;;;21.91;25.70;101654.28;1717334;82;20948;-69
2022/02/14 08:45:29;;;;;;;16.47;13.73;;;;;;;21.44;25.24;101648.22;1715224;82;21135;-67
2022/02/14 08:47:56;;;;;;;19.63;15.40;;;;;;;21.90;24.97;101643.37;1716890;83;21076;-66
2022/02/14 08:50:22;;;;;;;20.27;16.23;;;;;;;22.20;24.84;101636.25;1716989;83;20957;-67
2022/02/14 08:52:49;;;;;;;25.53;15.33;;;;;;;22.19;24.52;101632.47;1717039;82;21024;-65
2022/02/14 08:55:29;;;;;;;18.17;14.37;;;;;;;21.91;24.33;101631.72;1718377;82;20972;-68
2022/02/14 08:57:55;;;;;;;17.17;13.50;;;;;;;21.45;24.98;101625.95;1693778;82;21427;-68
2022/02/14 09:00:22;;;;;;;19.33;15.03;;;;;;;21.37;24.76;101631.56;1689878;82;21129;-67
2022/02/14 09:02:48;;;;;;;16.03;12.93;;;;;;;21.87;24.43;101623.39;1689870;83;21125;-68
2022/02/14 09:05:15;;;;;;;18.17;14.83;;;;;;;21.81;24.10;101622.95;1691200;83;20929;-68
2022/02/14 09:07:42;;;;;;;19.17;15.23;;;;;;;21.35;24.48;101618.50;1687838;83;21056;-65
2022/02/14 09:10:10;;;;;;;19.27;15.23;;;;;;;21.02;24.68;101610.05;1690472;83;21159;-67
2022/02/14 09:12:37;;;;;;;20.30;15.97;;;;;;;20.79;24.65;101615.97;1692602;83;21468;-67
2022/02/14 09:15:05;;;;;;;20.20;14.17;;;;;;;20.49;24.92;101614.45;1688964;83;21232;-67
2022/02/14 09:17:33;;;;;;;15.97;11.77;;;;;;;20.36;25.72;101618.02;1688357;83;20999;-68
2022/02/14 09:20:00;;;;;;;15.10;11.47;;;;;;;20.63;25.23;101614.17;1688725;83;21774;-66
2022/02/14 09:22:26;;;;;;;15.63;11.60;;;;;;;20.88;24.87;101607.54;1689051;83;21144;-67
2022/02/14 09:24:54;;;;;;;14.63;12.37;;;;;;;21.37;24.42;101605.84;1692523;83;21020;-66
2022/02/14 09:27:20;;;;;;;25.03;20.83;;;;;;;21.25;24.06;101600.95;1690260;82;21094;-68
2022/02/14 09:29:49;;;;;;;19.80;14.43;;;;;;;21.05;24.12;101601.14;1691434;82;21125;-66
2022/02/14 09:32:16;;;;;;;19.20;14.33;;;;;;;20.83;24.52;101595.44;1691450;83;21135;-69
2022/02/14 09:34:44;;;;;;;17.73;13.50;;;;;;;20.57;25.01;101599.16;1699695;83;21175;-67
2022/02/14 09:37:10;;;;;;;18.63;13.57;;;;;;;20.87;24.91;101588.70;1706829;83;21518;-68
2022/02/14 09:39:37;;;;;;;18.43;12.87;;;;;;;20.95;24.88;101588.93;1710209;83;21124;-69
2022/02/14 09:42:04;;;;;;;18.03;12.73;;;;;;;21.08;24.82;101587.45;1712604;83;21103;-66
2022/02/14 09:44:33;;;;;;;16.67;11.27;;;;;;;21.10;24.37;101585.89;1711219;82;21033;-66
2022/02/14 09:46:59;;;;;;;23.17;14.23;;;;;;;21.01;24.13;101585.38;1710092;82;21151;-66
2022/02/14 09:49:27;;;;;;;21.50;13.60;;;;;;;20.81;24.63;101583.45;1710063;82;21117;-68
2022/02/14 09:51:53;;;;;;;18.23;13.97;;;;;;;20.80;24.43;101575.22;1712254;83;21475;-69
2022/02/14 09:54:21;;;;;;;23.47;18.87;;;;;;;20.72;24.49;101564.87;1705441;82;21474;-67
2022/02/14 09:56:48;;;;;;;21.17;14.07;;;;;;;20.84;24.38;101561.81;1698219;83;21522;-66
2022/02/14 09:59:14;;;;;;;17.77;12.20;;;;;;;20.71;23.89;101554.79;1695428;83;21214;-67
2022/02/14 10:01:41;;;;;;;20.17;13.87;;;;;;;20.58;23.97;101547.78;1701306;83;20993;-67
2022/02/14 10:04:07;;;;;;;20.03;12.57;;;;;;;20.58;24.54;101560.23;1701094;83;21425;-65
2022/02/14 10:06:38;;;;;;;18.77;11.60;;;;;;;20.55;24.53;101554.03;1698216;83;21008;-66
2022/02/14 10:09:10;;;;;;;16.83;9.93;;;;;;;20.59;23.96;101556.02;1684595;83;21157;-66
2022/02/14 10:11:39;;;;;;;18.70;9.87;;;;;;;20.53;23.42;101547.64;1681720;84;21138;-69
2022/02/14 10:14:17;;;;;;;15.50;9.13;;;;;;;20.37;23.56;101548.94;1682371;84;21046;-66
2022/02/14 10:17:08;;;;;;;15.17;10.27;;;;;;;20.38;23.62;101545.77;1681641;83;21067;-67
2022/02/14 10:19:39;;;;;;;17.53;11.03;;;;;;;20.21;24.02;101543.38;1685346;83;22277;-67
2022/02/14 10:22:07;;;;;;;;;;;;;;;19.95;24.58;101535.11;1685674;83;21015;-68
2022/02/14 10:24:41;;;;;;;12.77;9.53;;;;;;;20.03;24.47;101528.23;1682797;84;21273;-66
2022/02/14 10:27:09;;;;;;;17.83;10.47;;;;;;;20.21;24.41;101528.30;1683349;83;21014;-69
2022/02/14 10:29:35;;;;;;;19.80;11.93;;;;;;;20.22;24.58;101535.21;1681010;84;21035;-67
2022/02/14 10:32:09;;;;;;;20.90;13.47;;;;;;;20.17;24.54;101528.44;1695682;83;21045;-68
2022/02/14 10:34:41;;;;;;;19.03;13.57;;;;;;;20.05;24.65;101521.70;1699424;83;21014;-68
2022/02/14 10:37:12;;;;;;;18.10;12.33;;;;;;;19.06;25.78;101533.58;1700800;83;21239;-68
2022/02/14 10:39:39;;;;;;;19.37;12.37;;;;;;;19.72;25.20;101523.23;1699842;82;21048;-67
2022/02/14 10:42:13;;;;;;;21.53;12.67;;;;;;;19.72;25.32;101516.62;1697570;83;21112;-67
2022/02/14 10:47:42;;;;;;;21.10;14.03;;;;;;;20.20;24.95;101506.83;1701942;83;21512;-66
2022/02/14 10:50:13;;;;;;;21.13;12.83;;;;;;;20.26;25.24;101507.78;1703994;83;21808;-67
2022/02/14 10:52:45;;;;;;;;;;;;;;;20.45;24.89;101511.29;1698371;83;21557;-67
2022/02/14 10:55:16;;;;;;;19.43;13.40;;;;;;;20.06;25.49;101514.05;1703756;83;20271;-67
2022/02/14 10:57:46;;;;;;;19.40;12.78;;;;;;;20.41;25.24;101509.59;1701257;83;21022;-68
2022/02/14 11:00:27;;;;;;;22.20;13.10;;;;;;;19.95;25.36;101513.94;1703795;83;20961;-68
2022/02/14 11:02:58;;;;;;;16.42;12.07;;;;;;;19.49;26.08;101508.38;1701761;83;22226;-69
2022/02/14 11:05:27;;;;;;;16.27;12.35;;;;;;;18.88;26.77;101509.12;1695219;83;21146;-67
2022/02/14 11:07:56;;;;;;;20.80;12.83;;;;;;;19.65;26.09;101499.45;1697394;83;21070;-68
2022/02/14 11:10:22;;;;;;;18.23;12.53;;;;;;;19.63;26.25;101504.17;1696125;83;21473;-69
2022/02/14 11:13:00;;;;;;;17.57;11.40;;;;;;;19.83;26.14;101497.94;1698554;83;21674;-67
2022/02/14 11:15:33;;;;;;;20.47;11.63;;;;;;;19.76;26.23;101485.27;1695203;83;21177;-67
2022/02/14 11:18:10;;;;;;;18.57;12.37;;;;;;;19.69;26.23;101482.13;1692895;83;22351;-70